Time;durP1;ratioP1;P1;durP2;ratioP2;P2;SDS_P1;SDS_P2;PMS_P1;PMS_P2;Temp;Humidity;BMP_temperature;BMP_pressure;BME280_temperature;BME280_humidity;BME280_pressure;Samples;Min_cycle;Max_cycle;Signal;HPM_P1;HPM_P2
2022/05/21 00:01:03;;;;;;;4.05;2.78;;;;;;;;;;143739;586;47020;-59
2022/05/21 00:03:31;;;;;;;2.65;2.42;;;;;;;;;;143739;577;47013;-59
2022/05/21 00:05:58;;;;;;;4.35;2.83;;;;;;;;;;143742;582;45911;-59
2022/05/21 00:08:25;;;;;;;5.40;3.35;;;;;;;;;;143745;625;45022;-58
2022/05/21 00:10:52;;;;;;;4.43;3.22;;;;;;;;;;143739;746;47019;-58
2022/05/21 00:13:19;;;;;;;4.80;2.55;;;;;;;;;;143740;591;47022;-59
2022/05/21 00:15:46;;;;;;;6.28;3.20;;;;;;;;;;143743;629;45018;-58
2022/05/21 00:18:13;;;;;;;5.45;2.83;;;;;;;;;;143745;592;46023;-58
2022/05/21 00:20:49;;;;;;;4.68;2.70;;;;;;;;;;143739;583;47020;-59
2022/05/21 00:23:24;;;;;;;4.18;2.65;;;;;;;;;;143740;598;46028;-59
2022/05/21 00:25:56;;;;;;;7.32;3.60;;;;;;;;;;143741;581;45910;-59
2022/05/21 00:28:24;;;;;;;4.35;3.10;;;;;;;;;;143745;581;46022;-59
2022/05/21 00:30:51;;;;;;;14.82;4.60;;;;;;;;;;143739;586;47020;-58
2022/05/21 00:33:18;;;;;;;5.05;3.53;;;;;;;;;;143740;570;46011;-59
2022/05/21 00:35:48;;;;;;;5.85;3.40;;;;;;;;;;143741;614;45909;-60
2022/05/21 00:38:15;;;;;;;5.18;3.28;;;;;;;;;;143745;580;45022;-59
2022/05/21 00:40:43;;;;;;;4.68;3.17;;;;;;;;;;143740;588;47018;-59
2022/05/21 00:43:39;;;;;;;4.03;3.00;;;;;;;;;;143741;583;46010;-58
2022/05/21 00:46:10;;;;;;;5.15;3.15;;;;;;;;;;143742;600;45018;-59
2022/05/21 00:48:38;;;;;;;6.20;3.65;;;;;;;;;;143746;579;45023;-58
2022/05/21 00:51:08;;;;;;;4.95;3.47;;;;;;;;;;143740;579;47018;-59
2022/05/21 00:53:36;;;;;;;6.45;3.22;;;;;;;;;;143741;573;46010;-58
2022/05/21 00:56:04;;;;;;;12.70;5.12;;;;;;;;;;143743;617;45019;-59
2022/05/21 01:01:17;;;;;;;8.18;3.70;;;;;;;;;;143743;570;45910;-59
2022/05/21 01:03:44;;;;;;;10.63;4.60;;;;;;;;;;143741;581;46028;-58
2022/05/21 01:06:13;;;;;;;8.60;4.68;;;;;;;;;;143741;564;45912;-59
2022/05/21 01:08:40;;;;;;;12.45;5.40;;;;;;;;;;143746;591;46022;-59
2022/05/21 01:11:13;;;;;;;6.82;3.62;;;;;;;;;;143741;575;47018;-58
2022/05/21 01:13:42;;;;;;;9.93;3.53;;;;;;;;;;143740;620;47010;-59
2022/05/21 01:16:10;;;;;;;10.77;4.00;;;;;;;;;;143743;647;45912;-59
2022/05/21 01:18:37;;;;;;;9.35;4.70;;;;;;;;;;143743;576;45023;-59
2022/05/21 01:21:05;;;;;;;13.52;6.32;;;;;;;;;;143738;620;47018;-58
2022/05/21 01:23:32;;;;;;;16.77;6.62;;;;;;;;;;143740;565;46011;-59
2022/05/21 01:26:01;;;;;;;12.20;5.12;;;;;;;;;;143741;581;45019;-59
2022/05/21 01:28:32;;;;;;;10.68;5.85;;;;;;;;;;143747;591;46022;-59
2022/05/21 01:31:01;;;;;;;11.45;4.93;;;;;;;;;;143741;577;47018;-59
2022/05/21 01:33:32;;;;;;;10.88;4.90;;;;;;;;;;143740;618;47010;-59
2022/05/21 01:35:59;;;;;;;10.52;4.87;;;;;;;;;;143740;605;45911;-58
2022/05/21 01:38:28;;;;;;;19.48;5.18;;;;;;;;;;143746;566;45022;-59
2022/05/21 01:40:57;;;;;;;13.50;6.20;;;;;;;;;;143741;608;47019;-59
2022/05/21 01:46:13;;;;;;;15.07;6.18;;;;;;;;;;143743;633;46019;-59
2022/05/21 01:48:40;;;;;;;9.45;5.25;;;;;;;;;;143744;613;45023;-59
2022/05/21 01:51:07;;;;;;;16.85;6.18;;;;;;;;;;143742;591;47018;-59
2022/05/21 01:53:36;;;;;;;10.32;6.37;;;;;;;;;;143741;604;46028;-59
2022/05/21 01:56:04;;;;;;;11.07;6.05;;;;;;;;;;143743;576;45019;-59
2022/05/21 01:58:32;;;;;;;16.87;7.20;;;;;;;;;;143746;614;45022;-59
2022/05/21 02:00:59;;;;;;;11.40;6.50;;;;;;;;;;143742;588;47018;-59
2022/05/21 02:03:26;;;;;;;15.10;7.03;;;;;;;;;;143741;586;46030;-59
2022/05/21 02:05:54;;;;;;;15.30;7.68;;;;;;;;;;143740;638;45910;-59
2022/05/21 02:08:21;;;;;;;13.05;7.62;;;;;;;;;;143746;584;45023;-58
2022/05/21 02:10:49;;;;;;;13.93;7.80;;;;;;;;;;143742;573;47018;-59
2022/05/21 02:13:19;;;;;;;15.32;8.02;;;;;;;;;;143741;623;46010;-59
2022/05/21 02:15:46;;;;;;;16.55;6.37;;;;;;;;;;143742;596;45019;-59
2022/05/21 02:18:14;;;;;;;25.65;9.98;;;;;;;;;;143743;610;47012;-59
2022/05/21 02:20:41;;;;;;;16.27;8.52;;;;;;;;;;143740;594;47018;-59
2022/05/21 02:23:10;;;;;;;23.98;8.65;;;;;;;;;;143740;579;47011;-59
2022/05/21 02:25:37;;;;;;;21.25;7.53;;;;;;;;;;143741;566;45911;-59
2022/05/21 02:28:05;;;;;;;19.50;8.00;;;;;;;;;;143746;616;46022;-59
2022/05/21 02:30:32;;;;;;;13.95;7.40;;;;;;;;;;143741;617;47019;-59
2022/05/21 02:32:59;;;;;;;16.92;8.38;;;;;;;;;;143742;570;46010;-59
2022/05/21 02:35:26;;;;;;;11.43;6.35;;;;;;;;;;143743;584;45909;-58
2022/05/21 02:40:38;;;;;;;16.62;7.62;;;;;;;;;;143741;629;47019;-59
2022/05/21 02:43:05;;;;;;;12.85;6.40;;;;;;;;;;143741;594;47010;-59
2022/05/21 02:45:32;;;;;;;11.50;6.57;;;;;;;;;;143744;617;46018;-59
2022/05/21 02:47:59;;;;;;;32.38;8.50;;;;;;;;;;143746;564;46023;-59
2022/05/21 02:50:30;;;;;;;14.13;7.35;;;;;;;;;;143741;586;47018;-59
2022/05/21 02:52:57;;;;;;;11.30;6.60;;;;;;;;;;143740;571;47010;-59
2022/05/21 02:55:25;;;;;;;13.35;6.45;;;;;;;;;;143743;570;45019;-59
2022/05/21 02:57:52;;;;;;;11.60;6.35;;;;;;;;;;143747;581;46022;-59
2022/05/21 03:00:28;;;;;;;14.55;5.60;;;;;;;;;;143741;602;47019;-59
2022/05/21 03:02:56;;;;;;;17.15;6.70;;;;;;;;;;143743;578;46010;-59
2022/05/21 03:05:23;;;;;;;14.45;6.15;;;;;;;;;;143745;619;45912;-59
2022/05/21 03:07:52;;;;;;;13.10;6.15;;;;;;;;;;143745;566;45023;-59
2022/05/21 03:10:22;;;;;;;10.00;5.82;;;;;;;;;;143742;590;47021;-59
2022/05/21 03:12:57;;;;;;;14.05;6.10;;;;;;;;;;143742;582;46012;-59
2022/05/21 03:15:26;;;;;;;;;;;;;;;;;;143746;983;46911;-59
2022/05/21 03:17:53;;;;;;;9.95;5.35;;;;;;;;;;143749;603;46010;-59
2022/05/21 03:20:21;;;;;;;8.95;5.72;;;;;;;;;;143744;659;47018;-59
2022/05/21 03:22:48;;;;;;;15.13;5.30;;;;;;;;;;143740;597;47022;-59
2022/05/21 03:25:16;;;;;;;12.60;5.37;;;;;;;;;;143741;567;45019;-59
2022/05/21 03:27:43;;;;;;;10.38;5.12;;;;;;;;;;143747;594;45022;-59
2022/05/21 03:30:14;;;;;;;9.63;5.43;;;;;;;;;;143742;579;47020;-58
2022/05/21 03:32:42;;;;;;;12.10;5.60;;;;;;;;;;143743;565;46010;-59
2022/05/21 03:35:10;;;;;;;18.15;5.68;;;;;;;;;;143743;603;45911;-58
2022/05/21 03:37:38;;;;;;;10.30;5.03;;;;;;;;;;143745;578;46022;-59
2022/05/21 03:40:06;;;;;;;15.80;7.93;;;;;;;;;;143741;589;47021;-59
2022/05/21 03:42:33;;;;;;;10.50;5.57;;;;;;;;;;143741;599;47010;-58
2022/05/21 03:45:00;;;;;;;13.75;5.95;;;;;;;;;;143742;571;46912;-59
2022/05/21 03:47:28;;;;;;;11.05;5.47;;;;;;;;;;143746;583;46023;-59
2022/05/21 03:49:55;;;;;;;16.05;6.15;;;;;;;;;;143741;612;47020;-58
2022/05/21 03:52:22;;;;;;;16.45;6.15;;;;;;;;;;143740;602;47010;-59
2022/05/21 03:54:49;;;;;;;14.13;5.87;;;;;;;;;;143744;582;45912;-59
2022/05/21 03:57:16;;;;;;;12.90;5.53;;;;;;;;;;143746;564;45022;-59
2022/05/21 03:59:44;;;;;;;11.65;5.53;;;;;;;;;;143742;586;47019;-58
2022/05/21 04:02:11;;;;;;;18.55;5.32;;;;;;;;;;143740;567;47010;-58
2022/05/21 04:04:38;;;;;;;16.83;7.47;;;;;;;;;;143740;610;46018;-59
2022/05/21 04:07:06;;;;;;;11.57;5.47;;;;;;;;;;143745;581;45025;-58
2022/05/21 04:09:33;;;;;;;11.15;5.68;;;;;;;;;;143740;600;47021;-58
2022/05/21 04:12:00;;;;;;;14.98;6.32;;;;;;;;;;143742;605;46010;-58
2022/05/21 04:14:30;;;;;;;12.98;5.40;;;;;;;;;;143740;599;46018;-58
2022/05/21 04:17:01;;;;;;;15.48;6.07;;;;;;;;;;143746;592;45023;-58
2022/05/21 04:19:30;;;;;;;11.45;5.87;;;;;;;;;;143742;579;47018;-58
2022/05/21 04:21:57;;;;;;;13.05;5.62;;;;;;;;;;143742;624;46010;-57
2022/05/21 04:24:24;;;;;;;16.33;8.35;;;;;;;;;;143744;612;45912;-58
2022/05/21 04:26:52;;;;;;;9.00;5.82;;;;;;;;;;143746;595;45022;-58
2022/05/21 04:29:20;;;;;;;14.18;5.90;;;;;;;;;;143741;624;47020;-57
2022/05/21 04:31:47;;;;;;;9.07;5.53;;;;;;;;;;143741;648;47010;-58
2022/05/21 04:34:14;;;;;;;10.43;5.90;;;;;;;;;;143743;620;45912;-57
2022/05/21 04:36:42;;;;;;;14.10;6.93;;;;;;;;;;143745;569;45022;-57
2022/05/21 04:39:09;;;;;;;14.82;6.55;;;;;;;;;;143742;642;47018;-57
2022/05/21 04:41:36;;;;;;;11.68;5.80;;;;;;;;;;143742;610;46024;-57
2022/05/21 04:44:04;;;;;;;13.13;6.20;;;;;;;;;;143743;639;45912;-57
2022/05/21 04:46:32;;;;;;;11.55;6.57;;;;;;;;;;143746;595;45023;-58
2022/05/21 04:48:59;;;;;;;14.98;6.62;;;;;;;;;;143738;566;48018;-57
2022/05/21 04:51:26;;;;;;;13.20;6.40;;;;;;;;;;143740;563;47010;-58
2022/05/21 04:53:53;;;;;;;10.43;5.90;;;;;;;;;;143742;594;45912;-58
2022/05/21 04:56:20;;;;;;;19.10;5.90;;;;;;;;;;143742;566;46022;-58
2022/05/21 04:58:47;;;;;;;11.82;6.87;;;;;;;;;;143742;589;47018;-58
2022/05/21 05:01:14;;;;;;;15.98;7.82;;;;;;;;;;143740;684;47010;-58
2022/05/21 05:03:41;;;;;;;15.38;7.65;;;;;;;;;;143743;566;45912;-59
2022/05/21 05:06:08;;;;;;;17.37;8.45;;;;;;;;;;143746;602;46022;-59
2022/05/21 05:08:36;;;;;;;16.37;8.35;;;;;;;;;;143744;599;47018;-59
2022/05/21 05:11:03;;;;;;;15.52;7.47;;;;;;;;;;143738;604;47010;-59
2022/05/21 05:13:30;;;;;;;16.00;7.15;;;;;;;;;;143744;621;45018;-59
2022/05/21 05:15:57;;;;;;;15.35;6.37;;;;;;;;;;143746;582;45023;-59
2022/05/21 05:18:27;;;;;;;17.95;7.70;;;;;;;;;;143746;683;45021;-59
2022/05/21 05:20:54;;;;;;;14.35;7.20;;;;;;;;;;143742;564;46010;-59
2022/05/21 05:23:21;;;;;;;10.68;6.55;;;;;;;;;;143743;575;45912;-59
2022/05/21 05:25:48;;;;;;;11.40;6.45;;;;;;;;;;143745;595;45023;-58
2022/05/21 05:28:20;;;;;;;12.27;7.00;;;;;;;;;;143742;576;47020;-58
2022/05/21 05:30:47;;;;;;;12.25;6.22;;;;;;;;;;143741;578;47011;-58
2022/05/21 05:33:16;;;;;;;10.10;6.65;;;;;;;;;;143744;624;45018;-57
2022/05/21 05:35:43;;;;;;;9.25;5.57;;;;;;;;;;143746;613;45022;-59
2022/05/21 05:38:12;;;;;;;11.43;5.45;;;;;;;;;;143740;565;47020;-58
2022/05/21 05:40:45;;;;;;;16.23;6.53;;;;;;;;;;143742;579;46921;-58
2022/05/21 05:43:13;;;;;;;9.75;5.93;;;;;;;;;;143742;569;45912;-59
2022/05/21 05:45:40;;;;;;;14.73;5.72;;;;;;;;;;143745;612;45023;-58
2022/05/21 05:48:07;;;;;;;11.43;5.50;;;;;;;;;;143740;696;47018;-58
2022/05/21 05:50:34;;;;;;;10.73;5.80;;;;;;;;;;143738;625;47010;-58
2022/05/21 05:53:05;;;;;;;11.05;6.62;;;;;;;;;;143742;586;45912;-58
2022/05/21 05:55:34;;;;;;;16.33;5.87;;;;;;;;;;143746;571;46022;-59
2022/05/21 05:59:48;;;;;;;11.57;5.43;;;;;;;;;;143742;569;47018;-58
2022/05/21 06:00:48;;;;;;;11.52;5.68;;;;;;;;;;143744;571;45919;-59
2022/05/21 06:03:15;;;;;;;8.88;5.85;;;;;;;;;;143743;687;46012;-59
2022/05/21 06:05:42;;;;;;;15.02;6.10;;;;;;;;;;143746;569;45022;-58
2022/05/21 06:08:09;;;;;;;12.57;6.55;;;;;;;;;;143741;587;47020;-58
2022/05/21 06:10:39;;;;;;;12.65;6.30;;;;;;;;;;143743;584;46012;-58
2022/05/21 06:13:06;;;;;;;12.57;6.15;;;;;;;;;;143742;647;45911;-59
2022/05/21 06:15:34;;;;;;;14.13;5.70;;;;;;;;;;143746;641;46023;-58
2022/05/21 06:18:09;;;;;;;12.37;6.22;;;;;;;;;;143741;591;47018;-58
2022/05/21 06:20:37;;;;;;;8.68;6.05;;;;;;;;;;143739;618;47012;-58
2022/05/21 06:23:04;;;;;;;10.75;6.45;;;;;;;;;;143745;618;45019;-58
2022/05/21 06:25:33;;;;;;;11.98;6.85;;;;;;;;;;143746;570;45023;-58
2022/05/21 06:28:02;;;;;;;11.52;6.28;;;;;;;;;;143740;650;47020;-58
2022/05/21 06:30:31;;;;;;;13.52;6.18;;;;;;;;;;143740;614;47012;-58
2022/05/21 06:32:59;;;;;;;15.25;6.55;;;;;;;;;;143739;620;46018;-58
2022/05/21 06:35:27;;;;;;;16.58;6.65;;;;;;;;;;143746;587;46022;-58
2022/05/21 06:37:54;;;;;;;8.90;5.47;;;;;;;;;;143740;645;47020;-58
2022/05/21 06:40:22;;;;;;;9.20;5.68;;;;;;;;;;143740;569;47012;-58
2022/05/21 06:42:49;;;;;;;8.90;5.68;;;;;;;;;;143742;689;45911;-58
2022/05/21 06:45:16;;;;;;;14.75;6.05;;;;;;;;;;143746;666;46022;-58
2022/05/21 06:47:44;;;;;;;12.73;5.87;;;;;;;;;;143741;600;47018;-58
2022/05/21 06:50:12;;;;;;;11.90;6.30;;;;;;;;;;143742;592;46012;-58
2022/05/21 06:52:39;;;;;;;17.65;6.40;;;;;;;;;;143744;683;45019;-58
2022/05/21 06:55:07;;;;;;;13.98;7.12;;;;;;;;;;143747;738;45022;-58
2022/05/21 06:57:34;;;;;;;13.45;5.80;;;;;;;;;;143741;571;47018;-58
2022/05/21 07:00:01;;;;;;;8.10;5.47;;;;;;;;;;143738;608;47013;-57
2022/05/21 07:02:28;;;;;;;11.10;5.28;;;;;;;;;;143744;638;45912;-58
2022/05/21 07:07:46;;;;;;;9.52;5.40;;;;;;;;;;143743;671;45021;-57
2022/05/21 07:10:24;;;;;;;10.20;4.40;;;;;;;;;;143740;595;46012;-57
2022/05/21 07:12:51;;;;;;;9.30;4.90;;;;;;;;;;143741;571;45914;-57
2022/05/21 07:15:19;;;;;;;8.82;5.47;;;;;;;;;;143743;711;46020;-57
2022/05/21 07:17:47;;;;;;;9.10;4.65;;;;;;;;;;143741;623;47020;-57
2022/05/21 07:20:17;;;;;;;9.18;5.32;;;;;;;;;;143739;585;47012;-57
2022/05/21 07:22:46;;;;;;;8.70;5.28;;;;;;;;;;143740;593;45914;-57
2022/05/21 07:25:16;;;;;;;9.55;4.70;;;;;;;;;;143745;582;45020;-57
2022/05/21 07:27:43;;;;;;;11.95;4.95;;;;;;;;;;143740;563;47020;-58
2022/05/21 07:30:11;;;;;;;10.10;5.12;;;;;;;;;;143739;592;47012;-57
2022/05/21 07:32:38;;;;;;;9.85;4.97;;;;;;;;;;143743;564;45020;-57
2022/05/21 07:35:12;;;;;;;11.12;4.47;;;;;;;;;;143744;593;45020;-58
2022/05/21 07:37:39;;;;;;;;;;;;;;;;;;143745;981;47021;-58
2022/05/21 07:40:07;;;;;;;11.30;4.47;;;;;;;;;;143745;590;46033;-57
2022/05/21 07:42:38;;;;;;;7.82;4.28;;;;;;;;;;143741;601;45020;-58
2022/05/21 07:45:08;;;;;;;11.35;4.47;;;;;;;;;;143743;600;46021;-57
2022/05/21 07:47:35;;;;;;;8.07;3.58;;;;;;;;;;143739;564;47020;-56
2022/05/21 07:50:03;;;;;;;9.43;4.25;;;;;;;;;;143737;569;47012;-57
2022/05/21 07:52:30;;;;;;;7.32;4.00;;;;;;;;;;143741;600;45021;-57
2022/05/21 07:54:57;;;;;;;9.45;4.32;;;;;;;;;;143744;607;45020;-57
2022/05/21 07:57:25;;;;;;;7.20;3.90;;;;;;;;;;143739;586;47022;-57
2022/05/21 07:59:52;;;;;;;6.00;3.65;;;;;;;;;;143740;589;47012;-57
2022/05/21 08:02:20;;;;;;;8.38;4.10;;;;;;;;;;143742;585;45020;-56
2022/05/21 08:04:48;;;;;;;5.75;3.33;;;;;;;;;;143745;582;45020;-57
2022/05/21 08:07:16;;;;;;;11.12;4.25;;;;;;;;;;143740;643;47021;-58
2022/05/21 08:09:43;;;;;;;7.30;3.85;;;;;;;;;;143737;602;47012;-58
2022/05/21 08:12:14;;;;;;;8.20;4.50;;;;;;;;;;143740;570;45911;-57
2022/05/21 08:14:42;;;;;;;12.02;4.40;;;;;;;;;;143743;633;46012;-59
2022/05/21 08:17:10;;;;;;;6.10;3.50;;;;;;;;;;143739;654;47021;-58
2022/05/21 08:19:37;;;;;;;7.65;5.05;;;;;;;;;;143739;605;47010;-57
2022/05/21 08:27:33;;;;;;;7.95;3.87;;;;;;;;;;143744;772;45018;-58
2022/05/21 08:30:00;;;;;;;6.45;4.10;;;;;;;;;;143740;565;46011;-58
2022/05/21 08:32:27;;;;;;;9.05;4.53;;;;;;;;;;143739;622;45912;-58
2022/05/21 08:34:54;;;;;;;14.90;5.30;;;;;;;;;;143742;632;46022;-58
2022/05/21 08:37:22;;;;;;;11.05;5.45;;;;;;;;;;143741;598;47019;-58
2022/05/21 08:39:49;;;;;;;10.70;3.87;;;;;;;;;;143740;653;46010;-59
2022/05/21 08:42:28;;;;;;;8.10;4.62;;;;;;;;;;143741;673;45912;-58
2022/05/21 08:45:21;;;;;;;4.72;3.20;;;;;;;;;;143742;574;47043;-57
2022/05/21 08:48:00;;;;;;;9.55;3.42;;;;;;;;;;143740;593;47018;-58
2022/05/21 08:50:33;;;;;;;9.73;4.65;;;;;;;;;;143740;591;46027;-59
2022/05/21 08:53:10;;;;;;;5.03;3.30;;;;;;;;;;143742;579;45912;-60
2022/05/21 08:55:48;;;;;;;7.28;3.62;;;;;;;;;;143745;656;45022;-59
2022/05/21 08:58:29;;;;;;;5.78;4.00;;;;;;;;;;143740;564;47020;-59
2022/05/21 09:00:57;;;;;;;8.85;3.22;;;;;;;;;;143740;584;46010;-58
2022/05/21 09:03:26;;;;;;;7.37;3.65;;;;;;;;;;143739;566;45912;-59
2022/05/21 09:06:24;;;;;;;10.27;4.57;;;;;;;;;;143743;581;45023;-58
2022/05/21 09:09:18;;;;;;;16.30;8.10;;;;;;;;;;143730;601;47018;-59
2022/05/21 09:12:16;;;;;;;9.77;5.75;;;;;;;;;;143738;634;47010;-58
2022/05/21 09:14:46;;;;;;;9.48;5.68;;;;;;;;;;143742;635;45019;-59
2022/05/21 09:17:16;;;;;;;8.48;3.97;;;;;;;;;;143744;579;46022;-59
2022/05/21 09:20:05;;;;;;;19.48;12.57;;;;;;;;;;143741;571;47018;-59
2022/05/21 09:22:33;;;;;;;12.37;6.60;;;;;;;;;;143741;611;46026;-59
2022/05/21 09:25:01;;;;;;;15.52;8.38;;;;;;;;;;143741;576;46018;-59
2022/05/21 09:27:43;;;;;;;13.05;9.90;;;;;;;;;;143745;579;45022;-59
2022/05/21 09:30:26;;;;;;;14.25;7.05;;;;;;;;;;143741;668;47018;-60
2022/05/21 09:32:56;;;;;;;10.00;6.95;;;;;;;;;;143740;603;47010;-59
2022/05/21 09:35:47;;;;;;;9.40;6.82;;;;;;;;;;143743;588;45019;-60
2022/05/21 09:38:19;;;;;;;12.23;6.25;;;;;;;;;;143745;585;45023;-60
2022/05/21 09:40:46;;;;;;;11.05;5.85;;;;;;;;;;143740;564;47020;-59
2022/05/21 09:46:35;;;;;;;8.88;5.00;;;;;;;;;;143739;574;47020;-60
2022/05/21 09:49:28;;;;;;;23.00;12.80;;;;;;;;;;143744;601;46022;-59
2022/05/21 09:52:08;;;;;;;32.42;19.08;;;;;;;;;;143739;638;47020;-59
2022/05/21 09:54:46;;;;;;;20.00;12.10;;;;;;;;;;143740;656;46029;-59
2022/05/21 09:57:43;;;;;;;11.90;8.00;;;;;;;;;;143741;569;45018;-59
2022/05/21 10:00:28;;;;;;;13.75;9.00;;;;;;;;;;143745;630;46023;-59
2022/05/21 10:03:07;;;;;;;10.40;5.25;;;;;;;;;;143740;673;47020;-59
2022/05/21 10:05:45;;;;;;;10.32;6.20;;;;;;;;;;143739;658;47010;-60
2022/05/21 10:12:04;;;;;;;11.93;4.70;;;;;;;;;;143744;665;47022;-60
2022/05/21 10:15:15;;;;;;;7.00;3.55;;;;;;;;;;143738;613;47020;-60
2022/05/21 10:17:54;;;;;;;7.45;3.97;;;;;;;;;;143740;705;46010;-60
2022/05/21 10:20:39;;;;;;;10.50;4.10;;;;;;;;;;143743;658;45019;-59
2022/05/21 10:23:34;;;;;;;8.25;4.50;;;;;;;;;;143743;624;46012;-59
2022/05/21 10:26:46;;;;;;;7.82;4.50;;;;;;;;;;143739;597;47020;-58
2022/05/21 10:29:47;;;;;;;6.22;3.75;;;;;;;;;;143739;564;47030;-59
2022/05/21 10:32:55;;;;;;;8.90;4.93;;;;;;;;;;143741;564;45907;-59
2022/05/21 10:35:57;;;;;;;10.05;3.80;;;;;;;;;;143745;612;46022;-59
2022/05/21 10:39:21;;;;;;;6.68;3.83;;;;;;;;;;143739;569;47020;-59
2022/05/21 10:42:32;;;;;;;9.98;3.20;;;;;;;;;;143740;603;46028;-59
2022/05/21 10:45:36;;;;;;;11.18;4.32;;;;;;;;;;143742;613;45019;-59
2022/05/21 10:48:28;;;;;;;7.82;4.12;;;;;;;;;;143744;612;46022;-59
2022/05/21 10:51:19;;;;;;;8.23;3.97;;;;;;;;;;143738;613;47019;-59
2022/05/21 10:54:25;;;;;;;7.28;4.07;;;;;;;;;;143739;613;47010;-58
2022/05/21 10:57:17;;;;;;;5.93;3.95;;;;;;;;;;143742;608;45022;-58
2022/05/21 11:00:26;;;;;;;7.05;3.87;;;;;;;;;;143744;715;46021;-58
2022/05/21 11:03:29;;;;;;;8.45;3.62;;;;;;;;;;143740;731;47020;-59
2022/05/21 11:06:32;;;;;;;5.65;3.35;;;;;;;;;;143739;630;47010;-59
2022/05/21 11:09:43;;;;;;;6.60;4.07;;;;;;;;;;143740;609;45910;-59
2022/05/21 11:12:26;;;;;;;9.80;4.07;;;;;;;;;;143745;644;45020;-59
2022/05/21 11:15:12;;;;;;;4.90;3.42;;;;;;;;;;143740;564;47020;-58
2022/05/21 11:18:35;;;;;;;7.40;3.60;;;;;;;;;;143739;631;47010;-59
2022/05/21 11:21:42;;;;;;;5.32;3.40;;;;;;;;;;143741;621;45021;-59
2022/05/21 11:24:41;;;;;;;4.55;3.20;;;;;;;;;;143745;628;46020;-59
2022/05/21 11:27:23;;;;;;;5.37;3.28;;;;;;;;;;143739;588;47021;-59
2022/05/21 11:30:18;;;;;;;7.97;3.53;;;;;;;;;;143738;598;47010;-59
2022/05/21 11:38:49;;;;;;;;;;;;;;;;;;143748;954;46048;-59
2022/05/21 11:41:25;;;;;;;5.18;2.92;;;;;;;;;;143743;621;47010;-59
2022/05/21 11:47:37;;;;;;;6.28;3.15;;;;;;;;;;143746;642;45022;-59
2022/05/21 11:50:14;;;;;;;5.70;3.42;;;;;;;;;;143738;628;47020;-59
2022/05/21 11:53:04;;;;;;;5.32;3.40;;;;;;;;;;143739;677;47010;-59
2022/05/21 11:56:01;;;;;;;4.55;2.95;;;;;;;;;;143742;569;45020;-59
2022/05/21 11:59:11;;;;;;;6.70;2.97;;;;;;;;;;143745;673;46023;-59
2022/05/21 12:02:10;;;;;;;10.68;3.55;;;;;;;;;;143739;657;47020;-59
2022/05/21 12:04:58;;;;;;;5.68;3.00;;;;;;;;;;143741;591;46010;-59
2022/05/21 12:08:32;;;;;;;5.32;3.20;;;;;;;;;;143742;574;45021;-58
2022/05/21 12:11:45;;;;;;;4.43;2.72;;;;;;;;;;143743;606;45022;-59
2022/05/21 12:14:27;;;;;;;9.00;3.75;;;;;;;;;;143741;627;47019;-59
2022/05/21 12:17:00;;;;;;;5.82;2.92;;;;;;;;;;143739;661;47010;-59
2022/05/21 12:20:07;;;;;;;6.73;3.40;;;;;;;;;;143741;594;46018;-59
2022/05/21 12:22:46;;;;;;;8.68;3.03;;;;;;;;;;143745;593;45023;-59
2022/05/21 12:25:52;;;;;;;4.75;3.05;;;;;;;;;;143739;611;47018;-59
2022/05/21 12:28:19;;;;;;;3.25;2.80;;;;;;;;;;143740;613;46010;-59
2022/05/21 12:30:47;;;;;;;6.15;3.20;;;;;;;;;;143742;607;45018;-59
2022/05/21 12:33:31;;;;;;;8.27;4.32;;;;;;;;;;143743;581;46022;-59
2022/05/21 12:36:13;;;;;;;6.65;3.60;;;;;;;;;;143740;583;47019;-59
2022/05/21 12:38:44;;;;;;;9.20;3.67;;;;;;;;;;143738;570;47010;-58
2022/05/21 12:41:18;;;;;;;5.15;3.33;;;;;;;;;;143741;582;45912;-59
2022/05/21 12:43:51;;;;;;;4.78;3.40;;;;;;;;;;143744;607;46023;-59
2022/05/21 12:46:32;;;;;;;5.80;3.17;;;;;;;;;;143739;722;47018;-58
2022/05/21 12:49:04;;;;;;;4.28;3.33;;;;;;;;;;143739;567;47011;-59
2022/05/21 12:51:34;;;;;;;5.90;3.35;;;;;;;;;;143740;615;45019;-59
2022/05/21 12:54:05;;;;;;;6.43;3.70;;;;;;;;;;143744;606;46022;-59
2022/05/21 12:56:37;;;;;;;6.35;3.28;;;;;;;;;;143741;621;47019;-58
2022/05/21 12:59:27;;;;;;;6.12;3.33;;;;;;;;;;143740;657;47010;-59
2022/05/21 13:02:14;;;;;;;8.52;3.42;;;;;;;;;;143743;590;45018;-59
2022/05/21 13:04:44;;;;;;;5.40;2.90;;;;;;;;;;143742;566;47022;-58
2022/05/21 13:07:26;;;;;;;5.65;2.50;;;;;;;;;;143739;612;47021;-59
2022/05/21 13:10:03;;;;;;;4.82;2.80;;;;;;;;;;143740;569;46010;-59
2022/05/21 13:12:41;;;;;;;10.07;4.40;;;;;;;;;;143742;652;45019;-58
2022/05/21 13:15:17;;;;;;;6.00;3.47;;;;;;;;;;143743;571;45022;-59
2022/05/21 13:18:16;;;;;;;8.85;3.72;;;;;;;;;;143741;623;47020;-58
2022/05/21 13:21:12;;;;;;;6.12;3.58;;;;;;;;;;143740;636;47010;-59
2022/05/21 13:24:29;;;;;;;4.97;3.10;;;;;;;;;;143742;606;45020;-59
2022/05/21 13:27:22;;;;;;;9.48;4.20;;;;;;;;;;143745;569;45023;-59
2022/05/21 13:29:52;;;;;;;5.03;2.72;;;;;;;;;;143741;581;47018;-58
2022/05/21 13:32:29;;;;;;;3.75;2.90;;;;;;;;;;143740;580;47010;-59
2022/05/21 13:35:02;;;;;;;5.47;3.10;;;;;;;;;;143743;580;45019;-59
2022/05/21 13:37:44;;;;;;;9.50;3.97;;;;;;;;;;143745;582;45023;-58
2022/05/21 13:40:34;;;;;;;9.48;4.12;;;;;;;;;;143741;589;47020;-59
2022/05/21 13:43:10;;;;;;;3.65;2.65;;;;;;;;;;143741;590;46010;-58
2022/05/21 13:45:43;;;;;;;4.40;3.10;;;;;;;;;;143740;601;45912;-58
2022/05/21 13:48:15;;;;;;;6.20;3.78;;;;;;;;;;143745;656;45022;-58
2022/05/21 13:50:46;;;;;;;6.20;3.37;;;;;;;;;;143739;737;47019;-59
2022/05/21 13:53:20;;;;;;;5.87;3.30;;;;;;;;;;143739;579;47010;-59
2022/05/21 13:56:05;;;;;;;7.90;3.50;;;;;;;;;;143743;593;45018;-59
2022/05/21 13:58:38;;;;;;;7.93;4.12;;;;;;;;;;143744;581;45023;-59
2022/05/21 14:01:20;;;;;;;7.47;4.12;;;;;;;;;;143739;593;47020;-59
2022/05/21 14:03:49;;;;;;;4.30;2.85;;;;;;;;;;143740;565;47010;-59
2022/05/21 14:06:19;;;;;;;5.05;3.25;;;;;;;;;;143740;592;46018;-59
2022/05/21 14:08:55;;;;;;;5.22;3.50;;;;;;;;;;143745;581;45022;-59
2022/05/21 14:11:23;;;;;;;5.40;2.97;;;;;;;;;;143739;709;47020;-59
2022/05/21 14:14:07;;;;;;;6.68;3.15;;;;;;;;;;143741;569;47010;-60
2022/05/21 14:16:43;;;;;;;5.87;3.35;;;;;;;;;;143742;599;45018;-59
2022/05/21 14:19:28;;;;;;;6.53;2.62;;;;;;;;;;143745;640;45023;-59
2022/05/21 14:22:03;;;;;;;5.60;3.00;;;;;;;;;;143739;625;47021;-60
2022/05/21 14:24:39;;;;;;;6.00;3.00;;;;;;;;;;143740;591;46010;-59
2022/05/21 14:27:27;;;;;;;7.87;3.15;;;;;;;;;;143743;587;45019;-59
2022/05/21 14:29:59;;;;;;;5.72;3.33;;;;;;;;;;143746;583;45022;-58
2022/05/21 14:32:35;;;;;;;7.75;3.50;;;;;;;;;;143740;608;47018;-58
2022/05/21 14:35:31;;;;;;;6.20;3.08;;;;;;;;;;143741;574;46010;-59
2022/05/21 14:38:01;;;;;;;5.72;3.40;;;;;;;;;;143742;564;45020;-58
2022/05/21 14:40:30;;;;;;;5.57;2.53;;;;;;;;;;143744;591;46010;-58
2022/05/21 14:43:04;;;;;;;5.07;2.92;;;;;;;;;;143739;596;47018;-58
2022/05/21 14:45:33;;;;;;;3.20;2.50;;;;;;;;;;143739;565;47010;-58
2022/05/21 14:48:03;;;;;;;4.80;2.72;;;;;;;;;;143743;576;45019;-59
2022/05/21 14:53:44;;;;;;;7.90;4.00;;;;;;;;;;143745;582;45018;-59
2022/05/21 14:56:27;;;;;;;3.67;2.55;;;;;;;;;;143740;575;47010;-58
2022/05/21 14:58:55;;;;;;;5.37;2.12;;;;;;;;;;143742;613;45018;-59
2022/05/21 15:01:23;;;;;;;5.43;2.65;;;;;;;;;;143746;603;45022;-59
2022/05/21 15:03:52;;;;;;;5.15;3.22;;;;;;;;;;143743;580;47018;-59
2022/05/21 15:06:23;;;;;;;5.95;3.22;;;;;;;;;;143742;573;46010;-58
2022/05/21 15:08:52;;;;;;;7.05;3.12;;;;;;;;;;143742;575;45018;-59
2022/05/21 15:11:19;;;;;;;5.80;2.50;;;;;;;;;;143745;682;46023;-59
2022/05/21 15:13:46;;;;;;;7.00;3.87;;;;;;;;;;143742;585;47018;-58
2022/05/21 15:16:14;;;;;;;4.70;3.12;;;;;;;;;;143742;569;46010;-58
2022/05/21 15:18:41;;;;;;;3.67;2.55;;;;;;;;;;143745;637;45019;-59
2022/05/21 15:21:21;;;;;;;3.58;2.20;;;;;;;;;;143745;576;45023;-59
2022/05/21 15:23:48;;;;;;;4.90;3.28;;;;;;;;;;143743;613;47036;-58
2022/05/21 15:26:15;;;;;;;6.53;3.05;;;;;;;;;;143741;625;46010;-59
2022/05/21 15:28:43;;;;;;;4.20;2.25;;;;;;;;;;143742;642;45911;-59
2022/05/21 15:31:10;;;;;;;5.85;3.00;;;;;;;;;;143746;661;46022;-58
2022/05/21 15:33:38;;;;;;;3.05;2.62;;;;;;;;;;143741;701;47019;-58
2022/05/21 15:36:05;;;;;;;4.93;3.10;;;;;;;;;;143742;636;46010;-58
2022/05/21 15:38:32;;;;;;;3.85;2.62;;;;;;;;;;143743;640;45911;-58
2022/05/21 15:40:59;;;;;;;6.43;2.80;;;;;;;;;;143745;580;45023;-58
2022/05/21 15:43:26;;;;;;;4.57;2.72;;;;;;;;;;143741;569;47021;-58
2022/05/21 15:45:54;;;;;;;5.47;2.47;;;;;;;;;;143741;590;47010;-58
2022/05/21 15:48:21;;;;;;;2.90;2.20;;;;;;;;;;143743;588;45912;-59
2022/05/21 15:50:48;;;;;;;4.47;2.37;;;;;;;;;;143745;604;46023;-58
2022/05/21 15:53:15;;;;;;;2.90;2.05;;;;;;;;;;143744;598;47018;-59
2022/05/21 15:55:45;;;;;;;4.22;2.95;;;;;;;;;;143741;570;47010;-58